Akiak, Alaska
Current Conditions -  °F | °C
As of 4:56 AM on Thursday 30 Oct 2014 (Local Time) from PFKW Reporting Station
Few Clouds Few Clouds  
Wind Chill: -10°   Ceiling: Unl
Heat Index: -6°   Visibility: 10mi
Dew Point: -7°   Wind: 5mph
Humidity: 92%   Direction: 330°NNW
Pressure: 29.9"   Gusts: NA
Location:  60.92°N, 161.23°W
Report Text: PFKW 301256Z AUTO 33004KT 10SM FEW017 M06/M07 A2990 RMK AO2 SLP126 T10611072 FZRANO
Loading
Personal Weather Stations






























Interactive Weather Map
Tropical Storm Tracking
New forecast layout! Learn more

10-Day Weather Forecast

Advertisements
Track Severe Weather on mobile